Time;durP1;ratioP1;P1;durP2;ratioP2;P2;SDS_P1;SDS_P2;PMS_P1;PMS_P2;Temp;Humidity;BMP_temperature;BMP_pressure;BME280_temperature;BME280_humidity;BME280_pressure;Samples;Min_cycle;Max_cycle;Signal;HPM_P1;HPM_P2
2023/10/02 00:05:05;;;;;;;23.35;11.77;;;17.10;99.90;;;;;;6240851;23;20085;-71
2023/10/02 00:07:42;;;;;;;27.27;11.93;;;17.00;99.90;;;;;;6240398;23;20103;-71
2023/10/02 00:10:11;;;;;;;26.38;11.65;;;17.00;99.90;;;;;;6241167;23;20020;-71
2023/10/02 00:12:37;;;;;;;23.10;11.65;;;17.00;99.90;;;;;;6241318;23;20024;-71
2023/10/02 00:15:14;;;;;;;29.02;12.55;;;17.00;99.90;;;;;;6240603;23;20016;-71
2023/10/02 00:17:43;;;;;;;23.02;12.27;;;16.90;99.90;;;;;;6216567;23;20129;-70
2023/10/02 00:20:28;;;;;;;25.15;11.73;;;17.00;99.90;;;;;;6240644;23;20694;-70
2023/10/02 00:22:54;;;;;;;33.17;12.68;;;16.90;99.90;;;;;;6241105;23;20052;-71
2023/10/02 00:25:22;;;;;;;23.02;11.43;;;16.90;99.90;;;;;;6214418;23;20816;-70
2023/10/02 00:27:50;;;;;;;27.58;12.05;;;17.00;99.90;;;;;;6241045;23;20079;-71
2023/10/02 00:30:21;;;;;;;23.50;11.70;;;16.90;99.90;;;;;;6240660;23;20022;-71
2023/10/02 00:32:49;;;;;;;23.25;10.95;;;16.90;99.90;;;;;;6240966;23;20016;-71
2023/10/02 00:35:15;;;;;;;26.23;12.18;;;17.00;99.90;;;;;;6240714;23;20024;-71
2023/10/02 00:37:45;;;;;;;21.90;11.55;;;17.00;99.90;;;;;;6213742;23;20035;-70
2023/10/02 00:40:21;;;;;;;24.92;12.27;;;17.00;99.90;;;;;;6214105;23;20028;-71
2023/10/02 00:42:56;;;;;;;29.50;12.55;;;17.00;99.90;;;;;;6240859;23;20349;-71
2023/10/02 00:45:24;;;;;;;24.40;11.27;;;17.00;99.90;;;;;;6240634;23;20004;-71
2023/10/02 00:47:52;;;;;;;23.33;11.23;;;17.00;99.90;;;;;;6241555;23;20027;-71
2023/10/02 00:50:21;;;;;;;23.65;10.65;;;17.00;99.90;;;;;;6213451;23;20443;-71
2023/10/02 00:52:55;;;;;;;23.77;11.40;;;17.00;99.90;;;;;;6240930;23;20054;-70
2023/10/02 00:55:27;;;;;;;31.27;12.10;;;17.00;99.90;;;;;;6240706;23;20475;-70
2023/10/02 00:57:58;;;;;;;23.27;10.55;;;17.10;99.90;;;;;;6240378;23;20016;-71
2023/10/02 01:00:35;;;;;;;28.00;14.87;;;17.00;99.90;;;;;;6212300;23;20949;-71
2023/10/02 01:03:08;;;;;;;29.25;14.82;;;17.20;99.90;;;;;;6239034;23;20358;-70
2023/10/02 01:05:50;;;;;;;28.67;14.30;;;17.30;99.90;;;;;;6239057;23;20765;-70
2023/10/02 01:08:23;;;;;;;28.23;14.38;;;17.40;99.90;;;;;;6212349;23;20880;-70
2023/10/02 01:11:02;;;;;;;30.23;14.90;;;17.50;99.90;;;;;;6239283;23;20362;-70
2023/10/02 01:13:34;;;;;;;27.27;14.65;;;17.50;99.90;;;;;;6212473;23;20457;-70
2023/10/02 01:16:08;;;;;;;29.50;14.98;;;17.60;99.90;;;;;;6212108;23;20393;-70
2023/10/02 01:18:40;;;;;;;30.10;14.43;;;17.60;99.90;;;;;;6239448;23;20369;-70
2023/10/02 01:21:11;;;;;;;28.30;14.85;;;17.60;99.90;;;;;;6239659;23;20366;-70
2023/10/02 01:24:16;;;;;;;29.87;14.60;;;17.60;99.90;;;;;;6240516;23;20356;-70
2023/10/02 01:26:43;;;;;;;28.48;14.65;;;17.70;99.90;;;;;;6241414;23;20362;-70
2023/10/02 01:29:13;;;;;;;29.75;14.40;;;17.70;99.90;;;;;;6214132;23;20453;-70
2023/10/02 01:31:42;;;;;;;26.33;14.90;;;17.70;99.90;;;;;;6214353;23;20366;-71
2023/10/02 01:34:54;;;;;;;24.45;12.40;;;17.70;99.90;;;;;;6242217;23;20103;-71
2023/10/02 01:36:55;;;;;;;25.63;12.30;;;17.40;99.90;;;;;;6221013;23;20538;-70
2023/10/02 01:39:21;;;;;;;26.60;11.80;;;17.20;99.90;;;;;;6242896;23;20024;-71
2023/10/02 01:41:52;;;;;;;22.40;10.95;;;17.20;99.90;;;;;;6215640;23;20094;-71
2023/10/02 01:44:22;;;;;;;25.80;12.13;;;17.10;99.90;;;;;;6242928;23;20019;-71
2023/10/02 01:46:52;;;;;;;23.05;11.27;;;17.10;99.90;;;;;;6215156;23;20024;-70
2023/10/02 01:49:24;;;;;;;21.98;11.13;;;17.10;99.90;;;;;;6242408;23;20051;-71
2023/10/02 01:51:55;;;;;;;21.48;11.23;;;17.10;99.90;;;;;;6215666;23;20030;-71
2023/10/02 01:54:25;;;;;;;30.48;12.18;;;17.00;99.90;;;;;;6242775;23;20022;-71
2023/10/02 01:56:52;;;;;;;26.35;11.02;;;17.00;99.90;;;;;;6215017;23;20029;-71
2023/10/02 01:59:21;;;;;;;25.75;11.70;;;17.00;99.90;;;;;;6242056;23;20099;-71
2023/10/02 02:01:52;;;;;;;25.42;11.32;;;17.00;99.90;;;;;;6242018;23;20016;-71
2023/10/02 02:04:23;;;;;;;28.17;11.32;;;16.90;99.90;;;;;;6215164;23;20020;-71
2023/10/02 02:06:51;;;;;;;22.20;11.23;;;16.90;99.90;;;;;;6242475;23;20341;-71
2023/10/02 02:09:24;;;;;;;25.40;12.20;;;16.90;99.90;;;;;;6242235;23;20369;-71
2023/10/02 02:12:07;;;;;;;22.95;11.38;;;16.90;99.90;;;;;;6242090;23;20028;-71
2023/10/02 02:14:50;;;;;;;23.88;11.05;;;16.90;99.90;;;;;;6241994;23;20020;-71
2023/10/02 02:17:21;;;;;;;24.38;11.23;;;16.90;99.90;;;;;;6242216;23;20317;-71
2023/10/02 02:19:50;;;;;;;26.77;12.23;;;16.90;99.90;;;;;;6242437;23;20016;-71
2023/10/02 02:22:25;;;;;;;24.42;12.07;;;16.90;99.90;;;;;;6242284;23;20020;-71
2023/10/02 02:24:53;;;;;;;29.77;13.15;;;16.90;99.90;;;;;;6241912;23;20038;-71
2023/10/02 02:27:19;;;;;;;27.15;11.90;;;16.90;99.90;;;;;;6242076;23;20337;-71
2023/10/02 02:29:49;;;;;;;26.67;12.05;;;16.90;99.90;;;;;;6215010;23;20445;-71
2023/10/02 02:32:19;;;;;;;27.15;12.82;;;16.90;99.90;;;;;;6241987;23;20118;-71
2023/10/02 02:34:48;;;;;;;24.02;12.27;;;16.80;99.90;;;;;;6242392;23;20012;-71
2023/10/02 02:37:13;;;;;;;26.50;12.55;;;16.80;99.90;;;;;;6215501;23;20190;-71
2023/10/02 02:39:39;;;;;;;25.52;12.68;;;16.80;99.90;;;;;;6243173;23;20018;-71
2023/10/02 02:42:22;;;;;;;27.25;12.52;;;16.80;99.90;;;;;;6242102;23;20019;-71
2023/10/02 02:44:49;;;;;;;;;;;16.80;99.90;;;;;;6216206;23;20020;-71
2023/10/02 02:47:16;;;;;;;;;;;16.80;99.90;;;;;;6242639;23;19938;-71
2023/10/02 02:49:50;;;;;;;;;;;16.80;99.90;;;;;;6242369;23;20324;-71
2023/10/02 02:52:24;;;;;;;;;;;16.80;99.90;;;;;;6242563;23;19922;-71
2023/10/02 02:54:58;;;;;;;;;;;16.70;99.90;;;;;;6242191;23;19916;-71
2023/10/02 02:57:25;;;;;;;;;;;16.70;99.90;;;;;;6215505;23;19923;-71
2023/10/02 03:02:44;;;;;;;;;;;16.70;99.90;;;;;;6242530;23;19990;-70
2023/10/02 03:05:11;;;;;;;;;;;16.70;99.90;;;;;;6215203;23;19989;-71
2023/10/02 03:07:39;;;;;;;;;;;16.70;99.90;;;;;;6242020;23;19912;-71
2023/10/02 03:10:10;;;;;;;;;;;16.60;99.90;;;;;;6215180;23;19927;-71
2023/10/02 03:12:46;;;;;;;;;;;16.60;99.90;;;;;;6242379;23;19915;-71
2023/10/02 03:15:14;;;;;;;;;;;16.60;99.90;;;;;;6241853;23;19958;-71
2023/10/02 03:17:41;;;;;;;;;;;16.60;99.90;;;;;;6242475;23;19915;-71
2023/10/02 03:20:22;;;;;;;;;;;16.60;99.90;;;;;;6242315;23;19912;-71
2023/10/02 03:22:52;;;;;;;;;;;16.50;99.90;;;;;;6242360;23;20281;-71
2023/10/02 03:28:03;;;;;;;;;;;16.50;99.90;;;;;;6242277;23;19947;-71
2023/10/02 03:30:35;;;;;;;;;;;16.50;99.90;;;;;;6241730;23;19923;-70
2023/10/02 03:33:02;;;;;;;;;;;16.50;99.90;;;;;;6242244;23;19973;-71
2023/10/02 03:35:27;;;;;;;;;;;16.50;99.90;;;;;;6242004;23;20213;-70
2023/10/02 03:37:53;;;;;;;;;;;16.40;99.90;;;;;;6242126;23;19926;-71
2023/10/02 03:40:20;;;;;;;;;;;16.40;99.90;;;;;;6242508;23;19915;-71
2023/10/02 03:42:47;;;;;;;;;;;16.40;99.90;;;;;;6214847;23;19915;-71
2023/10/02 03:45:13;;;;;;;;;;;16.40;99.90;;;;;;6241862;23;20211;-71
2023/10/02 03:47:41;;;;;;;;;;;16.40;99.90;;;;;;6241978;23;19942;-71
2023/10/02 03:50:12;;;;;;;;;;;16.30;99.90;;;;;;6241765;23;19911;-71
2023/10/02 03:52:37;;;;;;;;;;;16.30;99.90;;;;;;6241695;23;19911;-71
2023/10/02 03:55:17;;;;;;;28.45;11.43;;;16.30;99.90;;;;;;6241337;23;19968;-71
2023/10/02 03:57:49;;;;;;;28.23;12.35;;;16.30;99.90;;;;;;6240861;23;20587;-71
2023/10/02 04:00:18;;;;;;;;;;;16.20;99.90;;;;;;6241947;23;20374;-70
2023/10/02 04:02:49;;;;;;;;;;;16.20;99.90;;;;;;6214450;23;19995;-71
2023/10/02 04:10:55;;;;;;;;;;;16.20;99.90;;;;;;6241792;23;20236;-71
2023/10/02 04:13:31;;;;;;;;;;;16.20;99.90;;;;;;6241694;23;19922;-70
2023/10/02 04:18:58;;;;;;;;;;;16.10;99.90;;;;;;6181583;23;20257;-70
2023/10/02 04:21:25;;;;;;;;;;;16.10;99.90;;;;;;6181462;23;20291;-70
2023/10/02 04:23:53;;;;;;;;;;;16.10;99.90;;;;;;6181410;23;19982;-71
2023/10/02 04:26:23;;;;;;;22.65;11.57;;;16.10;99.90;;;;;;6178870;23;19916;-70
2023/10/02 04:32:19;;;;;;;26.27;11.38;;;16.10;99.90;;;;;;6088781;23;20022;-71
2023/10/02 04:34:56;;;;;;;29.67;13.05;;;16.10;99.90;;;;;;6088836;23;20580;-71
2023/10/02 04:37:22;;;;;;;27.25;11.80;;;16.10;99.90;;;;;;6138442;23;20113;-71
2023/10/02 04:42:25;;;;;;;23.75;12.05;;;16.10;99.90;;;;;;6180525;23;20041;-71
2023/10/02 04:44:58;;;;;;;27.95;12.93;;;16.10;99.90;;;;;;6180648;23;20020;-70
2023/10/02 04:47:28;;;;;;;24.00;11.93;;;16.10;99.90;;;;;;6180920;23;20040;-70
2023/10/02 04:55:23;;;;;;;33.92;16.17;;;16.10;99.90;;;;;;6179182;23;20373;-70
2023/10/02 04:57:54;;;;;;;30.58;16.20;;;16.20;99.90;;;;;;6178459;23;20440;-70
2023/10/02 05:03:24;;;;;;;28.92;12.52;;;16.20;99.90;;;;;;6147520;23;20021;-70
2023/10/02 05:05:53;;;;;;;26.33;12.70;;;16.10;99.90;;;;;;6182082;23;20028;-71
2023/10/02 05:08:21;;;;;;;25.17;12.70;;;16.10;99.90;;;;;;6182686;23;20087;-71
2023/10/02 05:11:04;;;;;;;29.85;12.13;;;16.00;99.90;;;;;;6155308;23;20048;-70
2023/10/02 05:13:53;;;;;;;26.60;11.40;;;16.00;99.90;;;;;;6155648;23;20013;-71
2023/10/02 05:16:38;;;;;;;25.45;12.27;;;16.00;99.90;;;;;;6241347;23;20027;-71
2023/10/02 05:19:09;;;;;;;27.90;12.38;;;15.90;99.90;;;;;;6242675;23;20022;-71
2023/10/02 05:21:38;;;;;;;28.05;12.88;;;15.90;99.90;;;;;;6243408;23;20026;-70
2023/10/02 05:24:05;;;;;;;27.13;11.43;;;15.90;99.90;;;;;;6244138;23;20090;-71
2023/10/02 05:26:36;;;;;;;29.50;13.52;;;15.90;99.90;;;;;;6216157;23;20023;-71
2023/10/02 05:29:07;;;;;;;23.13;12.20;;;15.90;99.90;;;;;;6242944;23;20027;-71
2023/10/02 05:31:35;;;;;;;23.25;11.07;;;15.90;99.90;;;;;;6216223;23;20024;-71
2023/10/02 05:34:25;;;;;;;34.72;12.88;;;15.90;99.90;;;;;;6243028;23;20020;-71
2023/10/02 05:37:23;;;;;;;27.88;12.48;;;15.90;99.90;;;;;;6242289;23;20118;-71
2023/10/02 05:39:43;;;;;;;23.67;11.95;;;15.90;99.90;;;;;;6241864;23;20028;-70
2023/10/02 05:42:13;;;;;;;26.50;12.38;;;15.80;99.90;;;;;;6242784;23;20094;-71
2023/10/02 05:44:41;;;;;;;24.98;11.95;;;15.80;99.90;;;;;;6242568;23;20096;-71
2023/10/02 05:47:07;;;;;;;26.98;12.40;;;15.90;99.90;;;;;;6243225;23;20345;-71
2023/10/02 05:49:37;;;;;;;26.77;13.10;;;15.90;99.90;;;;;;6243121;23;20008;-71
2023/10/02 05:52:07;;;;;;;30.90;12.95;;;15.80;99.90;;;;;;6243017;23;20043;-71
2023/10/02 05:54:37;;;;;;;29.70;13.02;;;15.80;99.90;;;;;;6215367;23;20349;-71
2023/10/02 05:57:09;;;;;;;27.50;12.55;;;15.90;99.90;;;;;;6215222;23;20024;-70
2023/10/02 05:59:45;;;;;;;28.83;12.45;;;15.90;99.90;;;;;;6217380;23;20348;-71
2023/10/02 06:02:19;;;;;;;25.88;11.85;;;15.90;99.90;;;;;;6242939;23;20383;-71
2023/10/02 06:04:47;;;;;;;26.42;11.32;;;15.90;99.90;;;;;;6215638;23;20016;-71
2023/10/02 06:10:09;;;;;;;26.10;12.48;;;15.90;99.90;;;;;;6242434;23;20391;-71
2023/10/02 06:12:42;;;;;;;24.75;11.95;;;15.90;99.90;;;;;;6215434;23;20113;-71
2023/10/02 06:15:43;;;;;;;25.88;11.23;;;15.90;99.90;;;;;;6242398;23;20030;-71
2023/10/02 06:17:58;;;;;;;28.80;12.10;;;15.90;99.90;;;;;;6215381;23;20020;-72
2023/10/02 06:20:24;;;;;;;27.77;12.23;;;15.90;99.90;;;;;;6215605;23;20027;-70
2023/10/02 06:22:51;;;;;;;23.58;11.20;;;15.90;99.90;;;;;;6216300;23;20457;-71
2023/10/02 06:25:20;;;;;;;28.95;12.30;;;15.90;99.90;;;;;;6215936;23;20452;-71
2023/10/02 06:27:47;;;;;;;26.33;11.98;;;15.90;99.90;;;;;;6190291;23;20012;-71
2023/10/02 06:30:16;;;;;;;28.35;12.18;;;15.90;99.90;;;;;;6215195;23;20083;-71
2023/10/02 06:32:54;;;;;;;27.33;11.52;;;16.00;99.90;;;;;;6242139;23;20023;-71
2023/10/02 06:35:26;;;;;;;24.10;12.18;;;16.00;99.90;;;;;;6242458;23;20048;-71
2023/10/02 06:37:52;;;;;;;23.83;11.70;;;16.00;99.90;;;;;;6214882;23;20322;-71
2023/10/02 06:40:23;;;;;;;30.92;11.48;;;16.10;99.90;;;;;;6215138;23;20031;-71
2023/10/02 06:42:51;;;;;;;23.30;11.52;;;16.10;99.90;;;;;;6242560;23;20030;-71
2023/10/02 06:45:18;;;;;;;27.10;12.25;;;16.10;99.90;;;;;;6215262;23;20020;-70
2023/10/02 06:47:44;;;;;;;22.45;10.60;;;16.20;99.90;;;;;;6242687;23;20185;-71
2023/10/02 06:50:31;;;;;;;26.38;12.35;;;16.20;99.90;;;;;;6242352;23;20487;-71
2023/10/02 06:53:00;;;;;;;27.60;12.05;;;16.20;99.90;;;;;;6241893;23;20460;-71
2023/10/02 06:55:27;;;;;;;24.58;11.57;;;16.20;99.90;;;;;;6242148;23;20024;-71
2023/10/02 06:57:53;;;;;;;28.02;11.90;;;16.30;99.90;;;;;;6214713;23;20013;-70
2023/10/02 07:00:21;;;;;;;26.92;12.02;;;16.30;99.90;;;;;;6214991;23;20020;-70
2023/10/02 07:02:56;;;;;;;24.77;11.88;;;16.40;99.90;;;;;;6241856;23;20020;-70
2023/10/02 07:05:27;;;;;;;33.03;12.73;;;16.40;99.90;;;;;;6189728;23;20076;-70
2023/10/02 07:08:01;;;;;;;26.05;12.23;;;16.40;99.90;;;;;;6214374;23;20020;-70
2023/10/02 07:10:42;;;;;;;26.63;11.45;;;16.40;99.90;;;;;;6242114;23;20082;-70
2023/10/02 07:13:23;;;;;;;26.30;11.25;;;16.40;99.90;;;;;;6241906;23;20012;-71
2023/10/02 07:15:55;;;;;;;26.92;11.00;;;16.50;99.90;;;;;;6189335;23;20028;-70
2023/10/02 07:18:35;;;;;;;22.75;11.10;;;16.50;99.90;;;;;;6242004;23;20027;-70
2023/10/02 07:21:01;;;;;;;26.35;11.35;;;16.50;99.90;;;;;;6241386;23;20432;-70
2023/10/02 07:23:30;;;;;;;27.25;12.13;;;16.50;99.90;;;;;;6241768;23;20113;-70
2023/10/02 07:25:56;;;;;;;26.08;11.80;;;16.60;99.90;;;;;;6241543;23;20020;-70
2023/10/02 07:28:23;;;;;;;25.30;12.02;;;16.60;99.90;;;;;;6214687;23;20016;-70
2023/10/02 07:30:52;;;;;;;28.63;12.05;;;16.70;99.90;;;;;;6241820;23;20078;-71
2023/10/02 07:33:21;;;;;;;27.80;11.80;;;16.70;99.90;;;;;;6241793;23;20023;-72
2023/10/02 07:35:53;;;;;;;25.25;11.98;;;16.70;99.90;;;;;;6241581;23;20074;-70
2023/10/02 07:38:30;;;;;;;26.83;11.80;;;16.70;99.90;;;;;;6241405;23;20027;-71
2023/10/02 07:41:08;;;;;;;27.45;11.85;;;16.70;99.90;;;;;;6241319;23;20097;-69
2023/10/02 07:43:35;;;;;;;27.88;12.38;;;16.80;99.90;;;;;;6241335;23;20024;-70
2023/10/02 07:46:19;;;;;;;31.33;12.20;;;16.80;99.90;;;;;;6241520;23;20448;-70
2023/10/02 07:48:57;;;;;;;24.63;12.35;;;16.90;99.90;;;;;;6214263;23;20326;-70
2023/10/02 07:51:30;;;;;;;25.13;12.32;;;16.90;99.90;;;;;;6189079;23;20020;-70
2023/10/02 07:53:59;;;;;;;42.60;12.77;;;16.90;99.90;;;;;;6214173;23;20524;-70
2023/10/02 07:56:27;;;;;;;26.88;11.80;;;16.90;99.90;;;;;;6214139;23;20330;-70
2023/10/02 07:58:55;;;;;;;27.38;12.15;;;16.90;99.90;;;;;;6241254;23;20031;-71
2023/10/02 08:01:27;;;;;;;25.27;12.30;;;17.00;99.90;;;;;;6241321;23;20024;-68
2023/10/02 08:03:55;;;;;;;28.50;13.10;;;17.00;99.90;;;;;;6214277;23;20345;-71
2023/10/02 08:06:45;;;;;;;27.38;11.45;;;17.00;99.90;;;;;;6241170;23;20022;-70
2023/10/02 08:11:54;;;;;;;24.80;11.30;;;17.10;99.90;;;;;;6242092;23;20019;-70
2023/10/02 08:14:45;;;;;;;26.85;12.15;;;17.10;99.90;;;;;;6241755;23;20016;-70
2023/10/02 08:17:22;;;;;;;29.95;13.48;;;17.10;99.90;;;;;;6241405;23;20024;-70
2023/10/02 08:19:56;;;;;;;28.02;11.98;;;17.20;99.90;;;;;;6240804;23;20012;-71
2023/10/02 08:22:35;;;;;;;31.33;13.88;;;17.20;99.90;;;;;;6241249;23;20023;-70
2023/10/02 08:25:12;;;;;;;26.27;13.57;;;17.20;99.90;;;;;;6214025;23;20085;-71
2023/10/02 08:27:39;;;;;;;30.42;12.85;;;17.20;99.90;;;;;;6213649;23;20008;-70
2023/10/02 08:30:18;;;;;;;32.75;13.55;;;17.30;99.90;;;;;;6240855;23;20786;-71
2023/10/02 08:32:45;;;;;;;30.63;12.80;;;17.30;99.90;;;;;;6240656;23;20028;-71
2023/10/02 08:35:13;;;;;;;25.67;12.75;;;17.30;99.90;;;;;;6215434;23;20023;-70
2023/10/02 08:37:42;;;;;;;28.45;13.60;;;17.40;99.90;;;;;;6215489;23;20070;-71
2023/10/02 08:40:08;;;;;;;27.25;12.10;;;17.40;99.90;;;;;;6243118;23;20016;-71
2023/10/02 08:42:34;;;;;;;29.85;13.20;;;17.40;99.90;;;;;;6242456;23;20111;-71
2023/10/02 08:45:01;;;;;;;28.05;12.65;;;17.50;99.90;;;;;;6243160;23;20020;-70
2023/10/02 08:47:27;;;;;;;25.33;12.60;;;17.60;99.90;;;;;;6242721;23;20024;-71
2023/10/02 08:50:03;;;;;;;28.00;13.05;;;17.60;99.90;;;;;;6242714;23;20024;-68
2023/10/02 08:52:38;;;;;;;30.05;13.73;;;17.60;99.90;;;;;;6243339;23;20074;-69
2023/10/02 08:55:33;;;;;;;31.02;14.10;;;17.70;99.90;;;;;;6243132;23;20019;-69
2023/10/02 08:58:22;;;;;;;28.65;13.10;;;17.70;99.90;;;;;;6242840;23;20020;-69
2023/10/02 09:03:45;;;;;;;29.27;13.50;;;17.80;99.90;;;;;;6236895;23;20090;-69
2023/10/02 09:11:53;;;;;;;34.35;15.00;;;17.90;99.90;;;;;;6234950;23;20444;-69
2023/10/02 09:19:48;;;;;;;27.75;13.68;;;18.10;99.90;;;;;;6242966;23;20020;-71
2023/10/02 09:22:16;;;;;;;30.40;15.15;;;18.10;99.90;;;;;;6215749;23;20092;-71
2023/10/02 09:24:58;;;;;;;32.88;14.88;;;18.10;99.90;;;;;;6242750;23;20031;-71
2023/10/02 09:27:38;;;;;;;34.27;16.27;;;18.20;99.90;;;;;;6242889;23;20031;-71
2023/10/02 09:30:36;;;;;;;33.45;14.85;;;18.20;99.90;;;;;;6242857;23;20012;-70
2023/10/02 09:33:07;;;;;;;36.30;14.65;;;18.20;99.90;;;;;;6242523;23;20019;-71
2023/10/02 09:35:44;;;;;;;34.83;15.65;;;18.30;99.90;;;;;;6242351;23;20027;-70
2023/10/02 09:38:13;;;;;;;33.45;14.32;;;18.40;99.90;;;;;;6190459;23;20087;-71
2023/10/02 09:43:31;;;;;;;33.30;15.95;;;18.50;99.90;;;;;;6242186;23;20078;-70
2023/10/02 09:46:15;;;;;;;32.50;15.27;;;18.50;99.90;;;;;;6214961;23;20251;-71
2023/10/02 09:49:03;;;;;;;38.65;16.98;;;18.50;99.90;;;;;;6242313;23;20032;-71
2023/10/02 09:52:11;;;;;;;33.63;15.93;;;18.60;99.90;;;;;;6242671;23;20377;-71
2023/10/02 09:55:23;;;;;;;39.35;17.23;;;18.70;99.90;;;;;;6242678;23;20091;-71
2023/10/02 09:57:52;;;;;;;35.88;18.00;;;18.70;99.90;;;;;;6119635;23;20347;-69
2023/10/02 10:03:22;;;;;;;37.80;17.30;;;18.80;99.90;;;;;;6194439;23;20396;-69
2023/10/02 10:06:06;;;;;;;41.97;18.55;;;18.90;99.90;;;;;;6242319;23;20016;-68
2023/10/02 10:11:42;;;;;;;37.72;16.52;;;18.90;99.90;;;;;;6119353;23;20018;-71
2023/10/02 10:14:41;;;;;;;35.55;17.30;;;19.00;99.90;;;;;;6119134;23;20714;-71
2023/10/02 10:17:49;;;;;;;37.33;15.82;;;19.00;99.90;;;;;;6208932;23;20020;-71
2023/10/02 10:20:22;;;;;;;35.08;15.55;;;19.10;99.90;;;;;;6219872;23;20026;-71
2023/10/02 10:22:55;;;;;;;39.60;17.48;;;19.10;99.90;;;;;;6242000;23;20020;-71
2023/10/02 10:27:55;;;;;;;38.50;17.10;;;19.20;99.90;;;;;;6241935;23;20717;-72
2023/10/02 10:30:39;;;;;;;36.33;16.40;;;19.30;99.90;;;;;;6214623;23;20016;-69
2023/10/02 10:35:35;;;;;;;37.50;15.85;;;19.50;99.90;;;;;;6242008;23;20024;-69
2023/10/02 10:38:25;;;;;;;32.75;15.30;;;19.50;99.90;;;;;;6214911;23;20024;-69
2023/10/02 10:41:01;;;;;;;35.85;16.08;;;19.40;99.90;;;;;;6242123;23;20019;-69
2023/10/02 10:46:19;;;;;;;31.02;14.48;;;19.50;99.90;;;;;;6241705;23;20012;-70
2023/10/02 10:48:53;;;;;;;;;;;19.50;99.90;;;;;;6241995;23;20019;-72
2023/10/02 10:56:30;;;;;;;33.50;15.43;;;19.60;99.90;;;;;;6198496;23;20172;-75
2023/10/02 10:59:09;;;;;;;31.63;14.07;;;19.60;99.90;;;;;;6179230;23;20479;-76
2023/10/02 11:01:34;;;;;;;31.38;14.93;;;19.60;99.90;;;;;;6180595;23;20021;-72
2023/10/02 11:04:03;;;;;;;39.13;16.02;;;19.60;99.90;;;;;;6181424;23;20484;-72
2023/10/02 11:06:30;;;;;;;33.42;15.40;;;19.60;99.90;;;;;;6181857;23;20056;-72
2023/10/02 11:09:18;;;;;;;37.20;15.43;;;19.60;99.90;;;;;;6181367;23;20028;-71
2023/10/02 11:11:49;;;;;;;;;;;19.70;99.90;;;;;;6182561;23;20100;-70
2023/10/02 11:14:21;;;;;;;;;;;19.70;99.90;;;;;;6183861;23;19970;-72
2023/10/02 11:16:54;;;;;;;;;;;19.80;99.90;;;;;;6185917;23;19920;-70
2023/10/02 11:22:21;;;;;;;;;;;20.00;99.90;;;;;;6182486;23;19920;-70
2023/10/02 11:24:53;;;;;;;;;;;20.10;99.90;;;;;;6181677;23;20383;-72
2023/10/02 11:27:19;;;;;;;;;;;20.10;99.90;;;;;;6182218;23;19923;-71
2023/10/02 11:30:00;;;;;;;;;;;20.20;99.90;;;;;;6181784;23;20629;-71
2023/10/02 11:32:45;;;;;;;;;;;20.20;99.90;;;;;;6182134;23;19923;-71
2023/10/02 11:35:10;;;;;;;;;;;20.30;99.90;;;;;;6155037;23;19927;-71
2023/10/02 11:37:44;;;;;;;;;;;20.30;99.90;;;;;;6182011;23;19924;-70
2023/10/02 11:40:09;;;;;;;;;;;20.30;99.90;;;;;;6181030;23;19920;-71
2023/10/02 11:42:35;;;;;;;;;;;20.30;99.90;;;;;;6181640;23;19927;-71
2023/10/02 11:45:00;;;;;;;;;;;20.30;99.90;;;;;;6181892;23;19920;-70
2023/10/02 11:47:28;;;;;;;;;;;20.30;99.90;;;;;;6181831;23;19916;-70
2023/10/02 11:49:53;;;;;;;;;;;20.30;99.90;;;;;;6155405;23;19927;-71
2023/10/02 11:52:19;;;;;;;;;;;20.40;99.90;;;;;;6182112;23;20288;-72
2023/10/02 11:54:44;;;;;;;;;;;20.40;99.90;;;;;;6181903;23;19966;-72
2023/10/02 11:57:10;;;;;;;;;;;20.40;99.90;;;;;;6181518;23;19924;-71
2023/10/02 11:59:36;;;;;;;;;;;20.50;99.90;;;;;;6182409;23;19954;-71
2023/10/02 12:02:03;;;;;;;;;;;20.50;99.90;;;;;;6182095;23;19923;-71
2023/10/02 12:04:30;;;;;;;;;;;20.50;99.90;;;;;;6182154;23;19916;-72
2023/10/02 12:06:56;;;;;;;27.40;12.38;;;20.50;99.90;;;;;;6181235;23;19927;-71
2023/10/02 12:09:24;;;;;;;28.00;11.95;;;20.60;99.90;;;;;;6181102;23;20016;-72
2023/10/02 12:11:50;;;;;;;26.75;11.45;;;20.60;99.90;;;;;;6181085;23;20017;-72
2023/10/02 12:14:16;;;;;;;27.25;11.85;;;20.70;99.90;;;;;;6181206;23;20021;-72
2023/10/02 12:16:42;;;;;;;28.73;12.75;;;20.70;99.90;;;;;;6181113;23;20411;-72
2023/10/02 12:19:10;;;;;;;26.95;12.43;;;20.70;99.90;;;;;;6180779;23;20458;-71
2023/10/02 12:21:36;;;;;;;23.05;12.15;;;20.70;99.90;;;;;;6180401;23;20017;-72
2023/10/02 12:24:03;;;;;;;27.02;13.27;;;20.80;99.90;;;;;;6181069;23;20055;-72
2023/10/02 12:26:29;;;;;;;32.25;11.63;;;20.80;99.90;;;;;;6180829;23;20087;-71
2023/10/02 12:28:55;;;;;;;25.17;11.73;;;20.90;99.90;;;;;;6180561;23;20063;-71
2023/10/02 12:31:21;;;;;;;27.63;12.02;;;20.90;99.90;;;;;;6154219;23;20025;-71
2023/10/02 12:33:52;;;;;;;29.00;12.38;;;20.90;99.90;;;;;;6180702;23;20056;-73
2023/10/02 12:36:20;;;;;;;24.98;11.10;;;21.00;99.90;;;;;;6153748;23;20104;-72
2023/10/02 12:38:47;;;;;;;26.30;11.15;;;21.00;99.90;;;;;;6181190;23;20035;-73
2023/10/02 12:41:18;;;;;;;25.67;10.80;;;21.10;99.90;;;;;;6180975;23;20013;-73
2023/10/02 12:43:45;;;;;;;19.08;10.52;;;21.10;99.90;;;;;;6180877;23;20381;-73
2023/10/02 12:46:15;;;;;;;22.52;10.18;;;21.10;99.90;;;;;;6180892;23;20106;-73
2023/10/02 12:48:46;;;;;;;20.25;9.68;;;21.20;99.90;;;;;;6181102;23;20025;-73
2023/10/02 12:51:13;;;;;;;19.97;9.70;;;21.20;99.90;;;;;;6180380;23;20028;-73
2023/10/02 12:53:40;;;;;;;22.27;9.40;;;21.20;99.90;;;;;;6180896;23;20025;-73
2023/10/02 12:56:06;;;;;;;23.30;9.35;;;21.20;99.90;;;;;;6180475;23;20033;-72
2023/10/02 12:58:33;;;;;;;22.38;10.10;;;21.30;99.90;;;;;;6180704;23;20025;-73
2023/10/02 13:01:00;;;;;;;21.63;9.98;;;21.30;99.90;;;;;;6180909;23;20017;-72
2023/10/02 13:03:32;;;;;;;20.40;10.27;;;21.30;99.90;;;;;;6180955;23;20013;-72
2023/10/02 13:05:59;;;;;;;23.45;10.20;;;21.30;99.90;;;;;;6180409;23;20028;-72
2023/10/02 13:08:26;;;;;;;20.98;9.30;;;21.30;99.90;;;;;;6180635;23;20024;-72
2023/10/02 13:10:53;;;;;;;20.30;9.60;;;21.30;99.90;;;;;;6154080;23;20065;-73
2023/10/02 13:13:20;;;;;;;24.70;10.50;;;21.30;99.90;;;;;;6180492;23;20036;-73
2023/10/02 13:15:48;;;;;;;23.50;10.38;;;21.30;99.90;;;;;;6154061;23;20106;-72
2023/10/02 13:18:15;;;;;;;26.10;11.27;;;21.30;99.90;;;;;;6180853;23;20013;-73
2023/10/02 13:20:43;;;;;;;25.15;10.43;;;21.30;99.90;;;;;;6180689;23;20081;-72
2023/10/02 13:23:08;;;;;;;23.33;9.77;;;21.20;99.90;;;;;;6182136;23;20445;-72
2023/10/02 13:25:35;;;;;;;22.25;10.38;;;21.30;99.90;;;;;;6182188;23;20024;-72
2023/10/02 13:28:02;;;;;;;24.88;11.02;;;21.30;99.90;;;;;;6155788;23;20461;-73
2023/10/02 13:30:30;;;;;;;23.90;10.55;;;21.30;99.90;;;;;;6182483;23;20052;-73
2023/10/02 13:32:57;;;;;;;22.50;9.88;;;21.30;99.90;;;;;;6182538;23;20096;-72
2023/10/02 13:35:23;;;;;;;22.63;8.95;;;21.40;99.90;;;;;;6181916;23;20067;-72
2023/10/02 13:37:52;;;;;;;22.85;11.05;;;21.30;99.90;;;;;;6155549;23;20025;-73
2023/10/02 13:40:18;;;;;;;20.65;9.77;;;21.30;99.90;;;;;;6182439;23;20510;-73
2023/10/02 13:42:46;;;;;;;24.88;10.52;;;21.30;99.90;;;;;;6182048;23;20013;-73
2023/10/02 13:45:12;;;;;;;22.33;9.75;;;21.30;99.90;;;;;;6182314;23;20013;-73
2023/10/02 13:47:38;;;;;;;19.88;9.70;;;21.30;99.90;;;;;;6182542;23;20028;-73
2023/10/02 13:50:05;;;;;;;24.60;9.65;;;21.30;99.90;;;;;;6182006;23;20088;-73
2023/10/02 13:52:31;;;;;;;21.33;9.18;;;21.30;99.90;;;;;;6182644;23;20079;-73
2023/10/02 13:54:57;;;;;;;20.33;9.27;;;21.30;99.90;;;;;;6182483;23;20025;-72
2023/10/02 13:57:23;;;;;;;18.42;8.77;;;21.30;99.90;;;;;;6182032;23;20357;-72
2023/10/02 13:59:49;;;;;;;21.60;9.32;;;21.40;99.90;;;;;;6183336;23;20444;-72
2023/10/02 14:02:15;;;;;;;26.02;8.75;;;21.40;99.90;;;;;;6189654;23;20017;-73
2023/10/02 14:04:41;;;;;;;19.63;9.15;;;21.40;99.90;;;;;;6183428;23;20709;-72
2023/10/02 14:07:08;;;;;;;20.77;9.05;;;21.50;99.90;;;;;;6182501;23;20392;-72
2023/10/02 14:09:34;;;;;;;21.88;10.27;;;21.50;99.90;;;;;;6155622;23;20421;-72
2023/10/02 14:12:00;;;;;;;24.83;10.45;;;21.50;99.90;;;;;;6182176;23;20032;-72
2023/10/02 14:14:26;;;;;;;24.67;11.15;;;21.50;99.90;;;;;;6181906;23;20025;-73
2023/10/02 14:16:52;;;;;;;21.65;10.25;;;21.50;99.90;;;;;;6182059;23;20109;-72
2023/10/02 14:19:18;;;;;;;25.05;11.50;;;21.50;99.90;;;;;;6181624;23;20329;-73
2023/10/02 14:21:45;;;;;;;23.75;11.07;;;21.50;99.90;;;;;;6130648;23;20064;-72
2023/10/02 14:24:11;;;;;;;24.90;11.57;;;21.50;99.90;;;;;;6181956;23;20112;-73